createdAt,value
2022-10-12T00:02:21.018Z,7.07
2022-10-12T00:05:08.853Z,7.97
2022-10-12T00:07:55.405Z,7.00
2022-10-12T00:10:42.993Z,6.30
2022-10-12T00:13:30.455Z,5.97
2022-10-12T00:16:20.679Z,7.67
2022-10-12T00:19:07.298Z,7.07
2022-10-12T00:21:54.221Z,6.00
2022-10-12T00:24:42.963Z,6.37
2022-10-12T00:27:29.906Z,6.47
2022-10-12T00:30:16.813Z,5.77
2022-10-12T00:33:05.036Z,5.33
2022-10-12T00:35:54.941Z,5.37
2022-10-12T00:38:41.513Z,4.87
2022-10-12T00:41:30.997Z,5.20
2022-10-12T00:44:41.020Z,6.27
2022-10-12T00:47:31.765Z,5.27
2022-10-12T00:50:25.983Z,5.10
2022-10-12T00:53:17.254Z,5.67
2022-10-12T00:56:07.098Z,5.47
2022-10-12T00:58:55.633Z,5.70
2022-10-12T01:01:42.607Z,5.63
2022-10-12T01:04:31.319Z,5.63
2022-10-12T01:07:19.228Z,6.23
2022-10-12T01:10:06.772Z,5.40
2022-10-12T01:12:54.095Z,7.70
2022-10-12T01:15:46.734Z,7.27
2022-10-12T01:18:40.846Z,7.43
2022-10-12T01:21:28.059Z,6.93
2022-10-12T01:24:35.881Z,6.87
2022-10-12T01:27:40.598Z,6.57
2022-10-12T01:30:32.133Z,7.03
2022-10-12T01:33:33.465Z,7.50
2022-10-12T01:36:28.592Z,6.50
2022-10-12T01:39:20.840Z,6.80
2022-10-12T01:42:12.230Z,6.73
2022-10-12T01:45:07.773Z,7.67
2022-10-12T01:47:56.555Z,6.93
2022-10-12T01:50:50.846Z,7.63
2022-10-12T01:53:43.645Z,7.37
2022-10-12T01:56:38.598Z,8.83
2022-10-12T01:59:37.449Z,7.53
2022-10-12T02:02:31.671Z,7.00
2022-10-12T02:05:28.229Z,7.43
2022-10-12T02:08:19.191Z,6.93
2022-10-12T02:11:09.594Z,6.83
2022-10-12T02:14:00.805Z,7.00
2022-10-12T02:16:52.020Z,7.13
2022-10-12T02:19:42.893Z,6.87
2022-10-12T02:22:35.811Z,7.50
2022-10-12T02:25:27.240Z,7.17
2022-10-12T02:28:18.282Z,7.03
2022-10-12T02:31:11.892Z,6.20
2022-10-12T02:34:03.913Z,6.73
2022-10-12T02:36:54.797Z,7.60
2022-10-12T02:39:49.301Z,6.43
2022-10-12T02:43:05.693Z,7.27
2022-10-12T02:45:49.462Z,6.43
2022-10-12T02:48:37.917Z,7.10
2022-10-12T02:51:25.920Z,7.37
2022-10-12T02:54:13.779Z,6.40
2022-10-12T02:57:02.044Z,7.67
2022-10-12T02:59:48.610Z,7.07
2022-10-12T03:02:35.466Z,6.80
2022-10-12T03:05:22.217Z,6.97
2022-10-12T03:08:09.116Z,7.10
2022-10-12T03:10:56.093Z,7.70
2022-10-12T03:13:44.205Z,6.90
2022-10-12T03:16:31.001Z,6.37
2022-10-12T03:19:17.651Z,6.30
2022-10-12T03:22:04.447Z,7.50
2022-10-12T03:24:51.514Z,6.90
2022-10-12T03:27:38.473Z,6.23
2022-10-12T03:30:27.322Z,6.77
2022-10-12T03:33:14.591Z,6.33
2022-10-12T03:36:02.134Z,7.27
2022-10-12T03:38:48.748Z,8.17
2022-10-12T03:41:35.715Z,6.47
2022-10-12T03:44:22.428Z,6.97
2022-10-12T03:47:10.503Z,7.13
2022-10-12T03:49:57.151Z,7.80
2022-10-12T03:52:44.158Z,7.07
2022-10-12T03:55:33.082Z,7.13
2022-10-12T03:58:20.005Z,8.10
2022-10-12T04:01:06.938Z,6.97
2022-10-12T04:03:55.493Z,6.40
2022-10-12T04:06:42.105Z,7.03
2022-10-12T04:09:28.829Z,6.60
2022-10-12T04:12:15.525Z,6.73
2022-10-12T04:15:02.047Z,7.23
2022-10-12T04:17:49.159Z,7.00
2022-10-12T04:20:37.509Z,6.57
2022-10-12T04:23:24.376Z,7.00
2022-10-12T04:26:11.478Z,6.47
2022-10-12T04:28:58.433Z,6.87
2022-10-12T04:31:45.339Z,7.30
2022-10-12T04:34:32.184Z,6.07
2022-10-12T04:37:20.258Z,5.90
2022-10-12T04:40:08.275Z,6.07
2022-10-12T04:42:55.854Z,6.10
2022-10-12T04:45:42.805Z,5.67
2022-10-12T04:48:30.020Z,5.50
2022-10-12T04:51:16.870Z,4.40
2022-10-12T04:54:05.134Z,5.33
2022-10-12T04:56:52.128Z,5.90
2022-10-12T04:59:38.955Z,6.13
2022-10-12T05:02:25.942Z,5.73
2022-10-12T05:05:12.674Z,6.20
2022-10-12T05:07:59.643Z,5.90
2022-10-12T05:10:47.648Z,6.20
2022-10-12T05:13:34.445Z,5.83
2022-10-12T05:16:22.048Z,5.87
2022-10-12T05:19:08.793Z,5.77
2022-10-12T05:21:55.728Z,6.40
2022-10-12T05:24:42.804Z,5.43
2022-10-12T05:27:31.515Z,4.70
2022-10-12T05:30:18.712Z,5.40
2022-10-12T05:33:05.740Z,5.07
2022-10-12T05:35:56.339Z,4.00
2022-10-12T05:38:44.023Z,5.13
2022-10-12T05:41:30.931Z,5.90
2022-10-12T05:44:19.031Z,5.10
2022-10-12T05:47:06.224Z,4.90
2022-10-12T05:49:53.281Z,4.60
2022-10-12T05:52:40.266Z,4.63
2022-10-12T05:55:27.601Z,4.10
2022-10-12T05:58:14.666Z,5.07
2022-10-12T06:01:09.156Z,4.03
2022-10-12T06:03:56.014Z,3.70
2022-10-12T06:06:42.765Z,5.00
2022-10-12T06:09:29.839Z,4.87
2022-10-12T06:12:17.244Z,4.50
2022-10-12T06:15:04.164Z,4.70
2022-10-12T06:17:52.328Z,4.87
2022-10-12T06:20:39.182Z,4.87
2022-10-12T06:23:26.399Z,4.40
2022-10-12T06:26:13.678Z,4.10
2022-10-12T06:29:01.396Z,4.40
2022-10-12T06:31:51.633Z,4.53
2022-10-12T06:34:40.290Z,3.97
2022-10-12T06:37:49.004Z,4.07
2022-10-12T06:40:36.951Z,3.90
2022-10-12T06:43:24.319Z,4.70
2022-10-12T06:46:12.031Z,3.80
2022-10-12T06:48:59.034Z,4.63
2022-10-12T06:51:47.318Z,4.23
2022-10-12T06:54:33.944Z,4.60
2022-10-12T06:57:21.170Z,4.57
2022-10-12T07:00:09.961Z,4.43
2022-10-12T07:02:57.185Z,4.10
2022-10-12T07:05:44.285Z,4.37
2022-10-12T07:08:32.257Z,4.00
2022-10-12T07:11:19.103Z,4.33
2022-10-12T07:14:06.263Z,5.60
2022-10-12T07:16:55.469Z,4.17
2022-10-12T07:19:42.244Z,4.53
2022-10-12T07:22:29.429Z,4.13
2022-10-12T07:25:17.633Z,4.73
2022-10-12T07:28:06.604Z,4.67
2022-10-12T07:30:53.300Z,3.87
2022-10-12T07:33:40.268Z,4.47
2022-10-12T07:36:41.056Z,5.03
2022-10-12T07:39:34.059Z,4.73
2022-10-12T07:42:21.930Z,4.27
2022-10-12T07:45:10.242Z,4.57
2022-10-12T07:47:57.625Z,4.37
2022-10-12T07:50:44.724Z,4.77
2022-10-12T07:53:31.750Z,4.70
2022-10-12T07:56:18.794Z,4.13
2022-10-12T07:59:07.363Z,4.27
2022-10-12T08:01:54.385Z,4.53
2022-10-12T08:04:41.053Z,4.43
2022-10-12T08:07:27.646Z,5.10
2022-10-12T08:10:28.166Z,5.57
2022-10-12T08:13:35.173Z,5.20
2022-10-12T08:16:36.437Z,5.33
2022-10-12T08:19:44.155Z,4.47
2022-10-12T08:22:51.175Z,4.27
2022-10-12T08:25:56.726Z,5.20
2022-10-12T08:29:03.183Z,4.80
2022-10-12T08:32:06.102Z,4.67
2022-10-12T08:34:53.671Z,4.70
2022-10-12T08:38:27.174Z,5.27
2022-10-12T08:41:55.225Z,4.87
2022-10-12T08:45:07.733Z,4.63
2022-10-12T08:48:06.775Z,4.53
2022-10-12T08:51:24.776Z,4.60
2022-10-12T09:46:37.037Z,3.92
2022-10-12T09:55:14.727Z,2.92
2022-10-12T10:02:34.779Z,3.33
2022-10-12T10:20:16.629Z,4.00
2022-10-12T12:02:29.171Z,2.60
2022-10-12T12:10:30.704Z,2.80
2022-10-12T12:31:59.141Z,2.85
2022-10-12T12:53:23.326Z,2.80
2022-10-12T13:11:12.854Z,3.30
2022-10-12T13:32:47.120Z,3.15
2022-10-12T13:54:50.914Z,2.78
2022-10-12T14:02:19.766Z,3.72
2022-10-12T14:23:14.804Z,3.53
2022-10-12T14:44:43.861Z,3.75
2022-10-12T15:03:10.133Z,4.03
2022-10-12T15:30:26.144Z,4.20
2022-10-12T15:47:43.153Z,4.80
2022-10-12T16:52:57.840Z,4.30
2022-10-12T17:09:36.366Z,5.13
2022-10-12T19:00:48.791Z,6.83
2022-10-12T19:36:09.605Z,7.07
2022-10-12T20:21:09.907Z,7.03
2022-10-12T20:48:12.272Z,6.57
2022-10-12T21:38:18.193Z,6.57
2022-10-12T21:55:06.159Z,6.10
2022-10-12T22:06:43.278Z,5.33
2022-10-12T22:19:18.571Z,6.23
2022-10-12T22:37:11.488Z,5.93
2022-10-12T22:55:10.555Z,5.77
2022-10-12T23:07:19.394Z,3.93
2022-10-12T23:14:26.461Z,5.43
2022-10-12T23:31:35.746Z,4.73
2022-10-12T23:52:54.395Z,3.83
